Relevés horaires Kleine Brogel (Belgique)


Relevés horaires à Kleine Brogel - Dimanche 19 Avr. 2026
Heure UTC1 Température [°C] Vent [km/h] Hum. [%] Pres.4 [hPa] Visi. [Km] Nébu. [octa] Préc.5 [mm] Cond.
2m. Res. Ros. Dir.2 Vit. Moy. Raf.3
23:00 5.0 5.0 3.2 NNO 1.9 -- 3.7 88 1023(0.0/3h) 45 -- -- --
22:00 6.4 6.4 3.2 NNO 1.9 -- 5.6 80 1023.1(0.6/3h) 14 -- -- --
21:00 7.4 7.4 3.6 NNO 1.9 -- 11.1 77 1023.1(1.0/3h) 15 -- -- --
20:00 8.9 8.3 3.8 N 5.6 -- 9.3 70 1023(1.2/3h) 17 -- -- --
19:00 10.5 10.2 3.6 N 5.6 -- 11.1 62 1022.3(0.6/3h) >70 -- -- --
18:00 12.3 12.2 2.8 NNO 5.6 -- 22.2 52 1021.8(0.1/3h) >70 -- 1/12h
NA
17:00 13.6 13.6 1.4 NNO 5.6 -- 14.8 43 1021.5(-0.2/3h) >70 -- -- --
16:00 15.1 15.1 1.8 NNO 7.4 7.4 14.8 41 1021.7(-0.5/3h) >70 -- -- --
15:00 15.6 15.6 4.6 NNO 7.4 -- 22.2 48 1021.6(-0.5/3h) >70 -- -- NA
14:00 14.4 14.3 4.9 NNO 7.4 -- 22.2 53 1021.7(-0.5/3h) >70 -- -- NA
13:00 15.1 15.1 5.5 NO 7.4 -- 14.8 53 1022.2(0.0/3h) >70 -- -- NA
12:00 13.3 13 6.6 O 7.4 -- 14.8 64 1022.2(0.1/3h) 21 -- 0.8/6h
Il y a de la pluie faible et continue à la station au moment de l'observation
11:00 13.1 12.8 5.7 ONO 7.4 -- 14.8 61 1022.5(0.2/3h) 35 -- -- Il y a de la pluie faible et continue à la station au moment de l'observation
10:00 15.1 15.1 5.6 NNO 5.6 -- 14.8 53 1022.1(0.2/3h) >70 -- -- --
09:00 13.0 13 4.7 NNO 5.6 -- 9.3 57 1022.2(0.6/3h) >70 -- -- --
08:00 12.3 12.3 6.6 NO 3.7 -- 7.4 68 1022.1(0.7/3h) >70 -- -- --
07:00 9.4 9.4 6.7 O 3.7 -- 5.6 83 1022(0.5/3h) 35 -- -- --
06:00 6.0 6.0 5.6 NNO 1.9 -- 5.6 97 1021.7(0.3/3h) 15 -- -- --
05:00 3.5 3.5 3.3 NNO 1.9 -- 3.7 99 1021.5(0.4/3h) 11 -- -- --
04:00 4.0 4.0 3.9 NNO 1.9 -- 3.7 99 1021.6(0.4/3h) 30 -- -- --
03:00 5.2 5.2 4.5 NNO 1.9 -- 5.6 95 1021.5(-0.1/3h) 40 -- -- --
02:00 6.5 6.5 5.1 NNO 1.9 -- 5.6 91 1021(0.0/3h) 14 -- -- --
01:00 7.5 7.5 5.5 NNO 1.9 -- 5.6 87 1021(0.0/3h) 16 -- -- --
00:00 8.3 8.3 5.3 NNO 1.9 -- 13.0 81 1021.5(0.5/3h) >70 -- -- --

1 Coordinated Universal Time. Actuellement il est 23:00 locale et 21:00 UTC.

2 Le vent souffle depuis la direction indiquée vers la direction oposée.

3 Les rafales max. sont disponible 40 min après l'heure du relevé.

4 Pour les stations d'altitude (plus de 600m) le géopotentiel du niveau le plus proche de la pression obligatoire est indiqué.

5 Les stations disposant d'un diffuseur peuvent indiquer "trace". Cela signifie que des précipitations ont touchés le sol mais que la quantité est inférieure à 0.1 mm.

Récapitulatif de la journée
Température [°C] Vent [km/h] Ensoleillement4 [h] Precipitations totale5 [mm] Pression [Hpa]
Min1 Max.2 Moy.3 Max. Min Max.
3.3 16.0 7.4 22.2 0 h 0 min 0 1021.0 1023.1

1 Température minimale relevée entre 18:00 UTC la veille et 18:00 UTC le jour donné.

2 Température maximale relevée entre 06:00 UTC le jour donné et 06:00 UTC le lendemain.

3 Vent moyen de la journée basé sur les relevés horaires.

4 Ensoleillement en heures relevé entre 06:00 UTC la veille et 06:00 UTC le jour donné.

5 Précipitations totales tombées entre 06:00 UTC la jour donné et 06:00 UTC le lendemain.

Graphiques horaires